createdAt,value
2023-03-05T00:00:41.285Z,5.47
2023-03-05T00:03:08.313Z,6.10
2023-03-05T00:05:35.347Z,5.18
2023-03-05T00:08:02.703Z,3.78
2023-03-05T00:10:31.125Z,5.57
2023-03-05T00:12:58.094Z,5.10
2023-03-05T00:15:25.021Z,4.72
2023-03-05T00:17:52.281Z,5.43
2023-03-05T00:20:19.415Z,5.45
2023-03-05T00:22:46.473Z,4.93
2023-03-05T00:25:13.473Z,4.13
2023-03-05T00:27:41.850Z,5.38
2023-03-05T00:30:09.467Z,4.35
2023-03-05T00:32:36.881Z,4.70
2023-03-05T00:35:03.944Z,4.65
2023-03-05T00:37:30.990Z,5.03
2023-03-05T00:39:57.935Z,5.10
2023-03-05T00:42:25.208Z,4.68
2023-03-05T00:44:53.696Z,5.28
2023-03-05T00:47:20.864Z,4.53
2023-03-05T00:49:47.925Z,5.32
2023-03-05T00:52:15.038Z,4.72
2023-03-05T00:54:41.974Z,5.43
2023-03-05T00:57:09.017Z,5.55
2023-03-05T00:59:37.089Z,5.18
2023-03-05T01:02:06.454Z,5.13
2023-03-05T01:04:33.486Z,5.55
2023-03-05T01:07:00.417Z,5.20
2023-03-05T01:09:27.543Z,5.15
2023-03-05T01:11:54.881Z,5.40
2023-03-05T01:14:22.248Z,5.95
2023-03-05T01:16:49.402Z,5.43
2023-03-05T01:19:20.790Z,5.15
2023-03-05T01:21:47.855Z,5.70
2023-03-05T01:24:14.756Z,5.32
2023-03-05T01:26:41.777Z,5.65
2023-03-05T01:29:09.728Z,6.03
2023-03-05T01:31:36.840Z,5.72
2023-03-05T01:34:03.769Z,5.22
2023-03-05T01:36:32.315Z,6.45
2023-03-05T01:38:59.382Z,8.20
2023-03-05T01:41:27.024Z,6.97
2023-03-05T01:43:54.089Z,6.60
2023-03-05T01:46:25.735Z,7.80
2023-03-05T01:48:54.190Z,7.07
2023-03-05T01:51:23.752Z,7.33
2023-03-05T01:53:52.489Z,7.32
2023-03-05T01:56:19.914Z,6.80
2023-03-05T01:58:47.091Z,6.97
2023-03-05T02:01:14.145Z,7.25
2023-03-05T02:03:41.755Z,7.10
2023-03-05T02:06:08.753Z,6.32
2023-03-05T02:08:35.676Z,6.93
2023-03-05T02:11:04.238Z,5.45
2023-03-05T02:13:32.821Z,5.18
2023-03-05T02:16:00.579Z,5.70
2023-03-05T02:18:28.121Z,5.38
2023-03-05T02:20:59.828Z,5.18
2023-03-05T02:23:27.565Z,4.85
2023-03-05T02:25:54.940Z,4.70
2023-03-05T02:28:24.788Z,5.18
2023-03-05T02:30:51.742Z,3.83
2023-03-05T02:33:19.527Z,2.90
2023-03-05T02:35:46.954Z,2.47
2023-03-05T02:38:16.357Z,2.25
2023-03-05T02:40:43.756Z,2.23
2023-03-05T02:43:11.390Z,2.60
2023-03-05T02:45:38.654Z,2.15
2023-03-05T02:48:05.978Z,2.10
2023-03-05T02:50:33.252Z,2.20
2023-03-05T02:53:00.291Z,2.20
2023-03-05T02:55:28.661Z,1.70
2023-03-05T02:57:55.639Z,1.83
2023-03-05T03:00:22.704Z,2.30
2023-03-05T03:02:49.672Z,2.40
2023-03-05T03:05:17.135Z,2.90
2023-03-05T03:07:44.575Z,2.00
2023-03-05T03:10:12.160Z,2.13
2023-03-05T03:12:43.798Z,2.40
2023-03-05T03:15:11.762Z,2.25
2023-03-05T03:17:39.096Z,2.20
2023-03-05T03:20:08.193Z,2.30
2023-03-05T03:22:35.130Z,2.67
2023-03-05T03:25:02.614Z,2.83
2023-03-05T03:27:29.535Z,2.67
2023-03-05T03:30:02.855Z,2.33
2023-03-05T03:32:31.589Z,3.00
2023-03-05T03:34:58.807Z,3.40
2023-03-05T03:37:25.860Z,3.05
2023-03-05T03:39:52.820Z,2.83
2023-03-05T03:42:20.266Z,3.20
2023-03-05T03:44:47.296Z,3.05
2023-03-05T03:47:15.624Z,3.03
2023-03-05T03:49:42.705Z,2.30
2023-03-05T03:52:11.061Z,2.60
2023-03-05T03:54:38.184Z,2.40
2023-03-05T03:57:05.292Z,2.22
2023-03-05T03:59:32.615Z,2.15
2023-03-05T04:01:59.639Z,2.35
2023-03-05T04:04:29.285Z,2.50
2023-03-05T04:06:56.792Z,2.13
2023-03-05T04:09:24.164Z,2.67
2023-03-05T04:11:51.339Z,2.75
2023-03-05T04:14:18.310Z,2.47
2023-03-05T04:16:45.225Z,2.42
2023-03-05T04:19:12.231Z,2.70
2023-03-05T04:21:40.880Z,3.45
2023-03-05T04:24:08.454Z,3.85
2023-03-05T04:26:35.465Z,4.63
2023-03-05T04:29:02.627Z,5.05
2023-03-05T04:31:29.600Z,4.30
2023-03-05T04:33:56.985Z,4.95
2023-03-05T04:36:24.192Z,4.00
2023-03-05T04:38:52.607Z,3.45
2023-03-05T04:41:19.551Z,3.80
2023-03-05T04:43:46.456Z,3.47
2023-03-05T04:46:13.518Z,3.50
2023-03-05T04:48:40.644Z,3.45
2023-03-05T04:51:07.612Z,3.20
2023-03-05T04:53:35.380Z,3.65
2023-03-05T04:56:04.151Z,3.20
2023-03-05T04:58:31.166Z,3.92
2023-03-05T05:01:01.144Z,2.67
2023-03-05T05:03:28.194Z,3.42
2023-03-05T05:05:55.532Z,3.50
2023-03-05T05:08:22.825Z,3.10
2023-03-05T05:10:59.399Z,3.50
2023-03-05T05:13:27.819Z,3.47
2023-03-05T05:15:54.993Z,4.00
2023-03-05T05:18:22.180Z,4.05
2023-03-05T05:20:49.549Z,3.80
2023-03-05T05:23:16.699Z,4.15
2023-03-05T05:25:43.823Z,3.88
2023-03-05T05:28:11.008Z,3.85
2023-03-05T05:30:39.377Z,4.40
2023-03-05T05:33:06.562Z,4.03
2023-03-05T05:35:33.548Z,3.83
2023-03-05T05:38:00.593Z,3.75
2023-03-05T05:40:27.492Z,4.20
2023-03-05T05:42:54.454Z,3.25
2023-03-05T05:45:21.348Z,3.50
2023-03-05T05:47:49.730Z,3.03
2023-03-05T05:50:16.811Z,4.00
2023-03-05T05:52:44.241Z,3.00
2023-03-05T05:55:11.853Z,3.58
2023-03-05T05:57:38.903Z,3.57
2023-03-05T06:00:08.354Z,3.28
2023-03-05T06:02:37.707Z,3.30
2023-03-05T06:05:07.073Z,3.67
2023-03-05T06:07:34.336Z,3.72
2023-03-05T06:10:01.307Z,6.27
2023-03-05T06:12:28.324Z,6.30
2023-03-05T06:14:55.307Z,5.65
2023-03-05T06:17:30.301Z,5.03
2023-03-05T06:19:58.398Z,6.78
2023-03-05T06:22:27.210Z,5.67
2023-03-05T06:24:54.190Z,5.45
2023-03-05T06:27:21.130Z,7.30
2023-03-05T06:29:48.068Z,7.63
2023-03-05T06:32:15.247Z,7.63
2023-03-05T06:34:42.355Z,5.20
2023-03-05T06:37:09.293Z,5.30
2023-03-05T06:39:37.566Z,5.10
2023-03-05T06:42:04.874Z,5.80
2023-03-05T06:44:31.950Z,6.55
2023-03-05T06:46:59.020Z,6.70
2023-03-05T06:49:26.012Z,6.38
2023-03-05T06:51:53.276Z,6.53
2023-03-05T06:54:20.187Z,6.75
2023-03-05T06:56:48.707Z,8.13
2023-03-05T06:59:16.507Z,9.65
2023-03-05T07:01:44.011Z,9.23
2023-03-05T07:04:11.662Z,9.52
2023-03-05T07:06:39.161Z,8.77
2023-03-05T07:09:06.867Z,8.88
2023-03-05T07:11:34.342Z,8.02
2023-03-05T07:14:03.052Z,9.13
2023-03-05T07:16:31.361Z,7.68
2023-03-05T07:18:59.200Z,7.10
2023-03-05T07:21:28.151Z,6.80
2023-03-05T07:23:55.675Z,7.40
2023-03-05T07:26:22.584Z,8.20
2023-03-05T07:28:49.797Z,12.77
2023-03-05T07:31:19.510Z,11.23
2023-03-05T07:33:46.937Z,9.48
2023-03-05T07:36:14.160Z,7.57
2023-03-05T07:38:41.143Z,7.65
2023-03-05T07:41:09.608Z,7.43
2023-03-05T07:43:37.005Z,7.70
2023-03-05T07:46:04.567Z,8.20
2023-03-05T07:48:33.200Z,8.32
2023-03-05T07:51:00.676Z,8.47
2023-03-05T07:53:27.889Z,7.65
2023-03-05T07:55:55.181Z,6.90
2023-03-05T07:58:22.153Z,7.60
2023-03-05T08:00:49.140Z,8.20
2023-03-05T08:03:18.173Z,7.63
2023-03-05T08:05:46.591Z,7.45
2023-03-05T08:08:13.840Z,6.43
2023-03-05T08:10:40.833Z,5.72
2023-03-05T08:13:07.857Z,6.07
2023-03-05T08:15:34.785Z,33.00
2023-03-05T08:18:01.964Z,10.00
2023-03-05T08:20:29.744Z,4.85
2023-03-05T08:22:58.085Z,4.47
2023-03-05T08:25:24.952Z,34.65
2023-03-05T08:27:52.107Z,13.07
2023-03-05T08:30:21.886Z,6.72
2023-03-05T08:32:48.822Z,6.50
2023-03-05T08:35:15.849Z,17.17
2023-03-05T08:37:42.922Z,7.85
2023-03-05T08:40:12.598Z,15.20
2023-03-05T08:42:39.525Z,9.07
2023-03-05T08:45:07.099Z,6.43
2023-03-05T08:47:34.039Z,5.70
2023-03-05T08:50:01.176Z,6.35
2023-03-05T08:52:28.128Z,9.37
2023-03-05T08:54:55.089Z,6.18
2023-03-05T08:57:23.436Z,3.92
2023-03-05T08:59:50.516Z,4.00
2023-03-05T09:02:17.522Z,3.58
2023-03-05T09:04:44.848Z,3.87
2023-03-05T09:07:13.041Z,5.85
2023-03-05T09:09:40.538Z,3.20
2023-03-05T09:12:07.618Z,5.88
2023-03-05T09:14:35.898Z,3.67
2023-03-05T09:17:02.933Z,6.80
2023-03-05T09:19:29.916Z,4.13
2023-03-05T09:21:57.270Z,5.22
2023-03-05T09:24:24.274Z,5.82
2023-03-05T09:26:51.194Z,3.55
2023-03-05T09:29:18.114Z,3.23
2023-03-05T09:31:50.248Z,4.20
2023-03-05T09:34:17.184Z,7.85
2023-03-05T09:36:44.083Z,4.38
2023-03-05T09:39:10.949Z,3.55
2023-03-05T09:41:50.172Z,4.00
2023-03-05T09:44:22.680Z,3.70
2023-03-05T09:46:55.007Z,3.83
2023-03-05T09:49:30.200Z,2.25
2023-03-05T09:52:01.920Z,3.15
2023-03-05T09:54:32.814Z,4.00
2023-03-05T09:57:02.462Z,3.60
2023-03-05T09:59:33.777Z,3.30
2023-03-05T10:02:03.443Z,5.47
2023-03-05T10:04:38.901Z,3.65
2023-03-05T10:07:08.944Z,3.57
2023-03-05T10:09:43.163Z,2.78
2023-03-05T10:12:14.784Z,3.10
2023-03-05T10:14:42.011Z,3.45
2023-03-05T10:17:24.388Z,3.75
2023-03-05T10:20:01.692Z,4.77
2023-03-05T10:22:29.781Z,5.30
2023-03-05T10:25:03.212Z,3.70
2023-03-05T10:27:38.035Z,4.50
2023-03-05T10:30:12.452Z,3.78
2023-03-05T10:32:48.348Z,5.00
2023-03-05T10:35:23.604Z,6.63
2023-03-05T10:38:14.270Z,6.13
2023-03-05T10:40:43.189Z,6.85
2023-03-05T10:43:16.378Z,7.13
2023-03-05T10:45:44.745Z,6.33
2023-03-05T10:48:16.341Z,8.75
2023-03-05T10:50:47.994Z,11.77
2023-03-05T10:53:19.926Z,16.10
2023-03-05T10:55:47.157Z,7.20
2023-03-05T10:58:15.147Z,5.93
2023-03-05T11:00:57.874Z,5.35
2023-03-05T11:03:26.464Z,6.40
2023-03-05T11:06:00.332Z,4.95
2023-03-05T11:08:28.704Z,5.97
2023-03-05T11:11:09.129Z,5.37
2023-03-05T11:13:37.244Z,6.60
2023-03-05T11:16:05.275Z,5.60
2023-03-05T11:18:37.794Z,6.53
2023-03-05T11:21:09.287Z,6.78
2023-03-05T11:23:36.211Z,9.93
2023-03-05T11:26:04.621Z,5.78
2023-03-05T11:28:34.137Z,6.10
2023-03-05T11:31:03.156Z,6.00
2023-03-05T11:33:30.812Z,10.90
2023-03-05T11:36:12.759Z,6.13
2023-03-05T11:38:47.503Z,6.07
2023-03-05T11:41:14.942Z,7.25
2023-03-05T11:43:43.815Z,6.18
2023-03-05T11:46:12.152Z,6.20
2023-03-05T11:48:40.408Z,5.27
2023-03-05T11:51:08.624Z,6.10
2023-03-05T11:53:38.807Z,7.40
2023-03-05T11:56:11.547Z,6.57
2023-03-05T11:58:42.255Z,6.80
2023-03-05T12:01:14.419Z,7.53
2023-03-05T12:03:41.718Z,7.43
2023-03-05T12:06:14.178Z,6.88
2023-03-05T12:08:45.202Z,7.30
2023-03-05T12:11:15.681Z,9.25
2023-03-05T12:13:44.546Z,11.03
2023-03-05T12:16:18.298Z,8.02
2023-03-05T12:18:51.728Z,10.02
2023-03-05T12:21:26.214Z,8.02
2023-03-05T12:23:55.679Z,6.28
2023-03-05T12:26:37.458Z,9.73
2023-03-05T12:29:04.694Z,8.00
2023-03-05T12:31:38.100Z,7.60
2023-03-05T12:34:24.234Z,6.65
2023-03-05T12:36:51.259Z,7.43
2023-03-05T12:39:36.798Z,7.37
2023-03-05T12:42:30.206Z,8.60
2023-03-05T12:45:21.401Z,7.80
2023-03-05T12:48:12.389Z,7.30
2023-03-05T12:50:51.657Z,9.15
2023-03-05T12:53:20.148Z,8.60
2023-03-05T12:55:55.684Z,8.23
2023-03-05T12:58:28.907Z,7.05
2023-03-05T13:00:58.671Z,7.88
2023-03-05T13:03:28.652Z,8.73
2023-03-05T13:05:56.755Z,9.40
2023-03-05T13:08:24.963Z,7.30
2023-03-05T13:10:52.867Z,8.82
2023-03-05T13:13:21.780Z,8.05
2023-03-05T13:15:50.883Z,8.55
2023-03-05T13:18:19.935Z,12.77
2023-03-05T13:20:50.956Z,11.13
2023-03-05T13:23:20.761Z,9.30
2023-03-05T13:25:58.630Z,10.52
2023-03-05T13:28:26.002Z,8.77
2023-03-05T13:30:56.548Z,7.87
2023-03-05T13:33:26.022Z,7.13
2023-03-05T13:35:54.147Z,9.95
2023-03-05T13:38:23.622Z,8.23
2023-03-05T13:41:04.321Z,7.50
2023-03-05T13:43:31.685Z,8.53
2023-03-05T13:46:00.378Z,7.65
2023-03-05T13:48:28.654Z,6.30
2023-03-05T13:50:57.211Z,6.10
2023-03-05T13:53:25.102Z,7.97
2023-03-05T13:55:53.251Z,8.40
2023-03-05T13:58:38.864Z,7.97
2023-03-05T14:01:13.378Z,7.60
2023-03-05T14:03:40.779Z,7.57
2023-03-05T14:06:09.946Z,7.82
2023-03-05T14:08:39.657Z,7.60
2023-03-05T14:11:13.544Z,8.23
2023-03-05T14:13:41.264Z,7.20
2023-03-05T14:16:09.411Z,7.50
2023-03-05T14:18:38.642Z,7.97
2023-03-05T14:21:07.821Z,6.83
2023-03-05T14:23:37.258Z,6.70
2023-03-05T14:26:11.582Z,9.25
2023-03-05T14:28:42.136Z,7.80
2023-03-05T14:31:15.449Z,7.40
2023-03-05T14:33:45.038Z,7.33
2023-03-05T14:36:12.825Z,7.40
2023-03-05T14:38:40.792Z,8.88
2023-03-05T14:41:35.463Z,10.05
2023-03-05T14:44:05.978Z,12.20
2023-03-05T14:46:33.250Z,12.10
2023-03-05T14:49:02.548Z,9.02
2023-03-05T14:51:29.886Z,10.02
2023-03-05T14:53:58.903Z,9.98
2023-03-05T14:56:27.882Z,10.70
2023-03-05T14:58:55.332Z,9.10
2023-03-05T15:01:24.418Z,8.95
2023-03-05T15:03:51.434Z,9.55
2023-03-05T15:06:25.574Z,9.45
2023-03-05T15:08:53.567Z,10.13
2023-03-05T15:11:22.823Z,11.73
2023-03-05T15:13:52.812Z,10.65
2023-03-05T15:16:20.231Z,12.15
2023-03-05T15:18:48.082Z,10.07
2023-03-05T15:21:15.111Z,10.95
2023-03-05T15:23:45.311Z,8.13
2023-03-05T15:26:14.381Z,9.00
2023-03-05T15:28:42.408Z,8.52
2023-03-05T15:31:09.724Z,10.52
2023-03-05T15:33:36.865Z,12.55
2023-03-05T15:36:04.483Z,9.10
2023-03-05T15:38:31.689Z,9.95
2023-03-05T15:41:01.756Z,9.32
2023-03-05T15:43:30.634Z,8.90
2023-03-05T15:45:57.950Z,8.00
2023-03-05T15:48:25.275Z,7.80
2023-03-05T15:50:52.613Z,8.27
2023-03-05T15:53:21.650Z,8.60
2023-03-05T15:55:49.203Z,7.78
2023-03-05T15:58:18.206Z,7.25
2023-03-05T16:00:47.549Z,7.30
2023-03-05T16:03:14.668Z,8.57
2023-03-05T16:05:41.984Z,7.95
2023-03-05T16:08:09.514Z,9.55
2023-03-05T16:10:38.682Z,13.10
2023-03-05T16:13:07.807Z,13.13
2023-03-05T16:15:38.543Z,11.98
2023-03-05T16:18:08.256Z,13.15
2023-03-05T16:20:36.389Z,11.50
2023-03-05T16:23:04.396Z,10.98
2023-03-05T16:25:32.003Z,11.33
2023-03-05T16:27:59.311Z,12.60
2023-03-05T16:30:26.529Z,13.02
2023-03-05T16:32:55.551Z,11.88
2023-03-05T16:35:23.079Z,12.05
2023-03-05T16:37:50.455Z,13.13
2023-03-05T16:40:17.931Z,12.50
2023-03-05T16:42:45.140Z,12.10
2023-03-05T16:45:12.568Z,12.27
2023-03-05T16:47:39.691Z,15.10
2023-03-05T16:50:09.441Z,23.53
2023-03-05T16:52:36.732Z,21.00
2023-03-05T16:55:04.112Z,18.63
2023-03-05T16:57:31.496Z,17.38
2023-03-05T17:00:01.290Z,16.02
2023-03-05T17:02:28.954Z,16.77
2023-03-05T17:04:57.605Z,16.52
2023-03-05T17:07:26.660Z,16.63
2023-03-05T17:09:54.023Z,21.63
2023-03-05T17:12:22.316Z,26.67
2023-03-05T17:14:49.593Z,27.20
2023-03-05T17:17:16.907Z,25.63
2023-03-05T17:19:45.505Z,23.48
2023-03-05T17:22:13.315Z,21.85
2023-03-05T17:24:47.338Z,20.55
2023-03-05T17:27:14.651Z,19.43
2023-03-05T17:29:41.748Z,19.05
2023-03-05T17:32:09.258Z,18.85
2023-03-05T17:34:37.251Z,17.20
2023-03-05T17:37:05.450Z,15.98
2023-03-05T17:39:32.551Z,16.23
2023-03-05T17:42:01.601Z,19.52
2023-03-05T17:44:28.818Z,17.83
2023-03-05T17:46:56.052Z,17.25
2023-03-05T17:49:23.389Z,19.00
2023-03-05T17:51:50.542Z,16.50
2023-03-05T17:54:17.706Z,17.85
2023-03-05T17:56:44.940Z,17.60
2023-03-05T17:59:13.424Z,15.63
2023-03-05T18:01:41.593Z,13.27
2023-03-05T18:04:08.899Z,12.63
2023-03-05T18:06:36.214Z,12.80
2023-03-05T18:09:03.566Z,12.23
2023-03-05T18:11:30.736Z,12.85
2023-03-05T18:13:57.978Z,15.85
2023-03-05T18:16:26.749Z,17.93
2023-03-05T18:18:54.090Z,18.42
2023-03-05T18:21:22.213Z,15.18
2023-03-05T18:23:50.153Z,15.27
2023-03-05T18:26:17.741Z,14.70
2023-03-05T18:28:45.771Z,18.37
2023-03-05T18:31:13.104Z,22.88
2023-03-05T18:33:42.794Z,24.23
2023-03-05T18:36:10.869Z,25.83
2023-03-05T18:38:38.598Z,25.55
2023-03-05T18:41:06.549Z,25.30
2023-03-05T18:43:34.056Z,25.15
2023-03-05T18:46:05.102Z,22.45
2023-03-05T18:48:32.468Z,23.15
2023-03-05T18:51:02.397Z,20.10
2023-03-05T18:53:29.950Z,19.60
2023-03-05T18:55:57.102Z,18.23
2023-03-05T18:58:26.073Z,17.35
2023-03-05T19:00:53.576Z,16.65
2023-03-05T19:03:22.579Z,17.20
2023-03-05T19:05:51.391Z,16.87
2023-03-05T19:08:20.129Z,18.33
2023-03-05T19:10:47.518Z,17.02
2023-03-05T19:13:35.137Z,19.55
2023-03-05T19:16:06.711Z,17.20
2023-03-05T19:18:43.140Z,19.17
2023-03-05T19:21:11.243Z,21.45
2023-03-05T19:23:39.970Z,22.38
2023-03-05T19:26:07.527Z,22.05
2023-03-05T19:28:35.086Z,23.55
2023-03-05T19:31:02.881Z,22.43
2023-03-05T19:33:30.188Z,22.25
2023-03-05T19:35:57.501Z,21.63
2023-03-05T19:38:25.223Z,19.77
2023-03-05T19:40:53.835Z,20.83
2023-03-05T19:43:21.065Z,18.60
2023-03-05T19:45:48.805Z,19.30
2023-03-05T19:48:17.152Z,18.70
2023-03-05T19:50:44.416Z,16.25
2023-03-05T19:53:11.441Z,15.63
2023-03-05T19:55:40.930Z,15.60
2023-03-05T19:58:09.753Z,14.45
2023-03-05T20:00:37.097Z,13.07
2023-03-05T20:03:04.792Z,12.52
2023-03-05T20:05:32.541Z,11.68
2023-03-05T20:07:59.743Z,9.30
2023-03-05T20:10:26.974Z,9.30
2023-03-05T20:12:54.367Z,7.45
2023-03-05T20:15:23.574Z,7.03
2023-03-05T20:17:52.481Z,9.57
2023-03-05T20:20:19.817Z,10.00
2023-03-05T20:22:47.432Z,10.52
2023-03-05T20:25:16.557Z,10.18
2023-03-05T20:27:44.469Z,9.10
2023-03-05T20:30:13.054Z,8.98
2023-03-05T20:32:42.002Z,8.53
2023-03-05T20:35:12.653Z,9.55
2023-03-05T20:37:50.278Z,10.45
2023-03-05T20:40:18.307Z,9.93
2023-03-05T20:42:45.522Z,8.65
2023-03-05T20:45:12.930Z,8.47
2023-03-05T20:47:46.212Z,8.63
2023-03-05T20:50:14.553Z,8.52
2023-03-05T20:52:41.861Z,8.07
2023-03-05T20:55:09.790Z,8.20
2023-03-05T20:57:36.950Z,8.97
2023-03-05T21:00:04.920Z,8.38
2023-03-05T21:02:32.190Z,9.50
2023-03-05T21:05:00.919Z,9.38
2023-03-05T21:07:29.739Z,10.10
2023-03-05T21:09:57.306Z,9.30
2023-03-05T21:12:24.408Z,9.55
2023-03-05T21:14:51.771Z,9.38
2023-03-05T21:17:21.607Z,9.80
2023-03-05T21:19:48.968Z,9.60
2023-03-05T21:22:18.536Z,9.17
2023-03-05T21:25:03.460Z,9.65
2023-03-05T21:27:31.321Z,10.57
2023-03-05T21:29:58.483Z,12.82
2023-03-05T21:32:26.356Z,18.75
2023-03-05T21:34:53.450Z,14.50
2023-03-05T21:37:22.151Z,12.82
2023-03-05T21:39:49.062Z,10.43
2023-03-05T21:42:16.548Z,11.68
2023-03-05T21:44:43.754Z,11.93
2023-03-05T21:47:10.709Z,12.47
2023-03-05T21:49:37.653Z,13.70
2023-03-05T21:52:11.902Z,13.20
2023-03-05T21:54:40.903Z,12.25
2023-03-05T21:57:10.183Z,12.13
2023-03-05T21:59:39.056Z,10.80
2023-03-05T22:02:06.326Z,12.07
2023-03-05T22:04:33.286Z,11.27
2023-03-05T22:07:00.174Z,10.38
2023-03-05T22:09:27.241Z,13.07
2023-03-05T22:11:55.734Z,16.07
2023-03-05T22:14:22.826Z,14.25
2023-03-05T22:16:53.781Z,15.65
2023-03-05T22:19:20.750Z,15.18
2023-03-05T22:21:48.127Z,16.48
2023-03-05T22:24:14.987Z,14.70
2023-03-05T22:26:41.914Z,12.48
2023-03-05T22:29:11.757Z,11.55
2023-03-05T22:31:40.696Z,10.63
2023-03-05T22:34:07.628Z,11.00
2023-03-05T22:36:34.879Z,11.20
2023-03-05T22:39:01.997Z,12.05
2023-03-05T22:41:29.155Z,11.05
2023-03-05T22:43:56.256Z,8.98
2023-03-05T22:46:25.171Z,8.85
2023-03-05T22:48:52.107Z,9.43
2023-03-05T22:51:19.405Z,9.30
2023-03-05T22:53:46.409Z,9.35
2023-03-05T22:56:14.616Z,9.23
2023-03-05T22:58:41.637Z,9.55
2023-03-05T23:01:12.307Z,9.07
2023-03-05T23:03:41.173Z,9.32
2023-03-05T23:06:08.986Z,9.95
2023-03-05T23:08:36.015Z,8.77
2023-03-05T23:11:07.248Z,8.82
2023-03-05T23:13:34.188Z,8.83
2023-03-05T23:16:01.193Z,9.05
2023-03-05T23:18:28.123Z,9.27
2023-03-05T23:20:56.461Z,8.80
2023-03-05T23:23:23.450Z,8.98
2023-03-05T23:25:50.425Z,9.17
2023-03-05T23:28:17.568Z,8.27
2023-03-05T23:30:44.546Z,8.07
2023-03-05T23:33:14.046Z,7.93
2023-03-05T23:35:42.570Z,7.95
2023-03-05T23:38:12.211Z,8.23
2023-03-05T23:40:40.366Z,8.20
2023-03-05T23:43:07.436Z,7.68
2023-03-05T23:45:34.777Z,6.93
2023-03-05T23:48:01.908Z,6.87
2023-03-05T23:50:29.539Z,7.05
2023-03-05T23:52:57.072Z,7.15
2023-03-05T23:55:26.149Z,7.45
2023-03-05T23:57:53.717Z,6.88
